createdAt,value
2017-08-06T00:02:00.744Z,99.90
2017-08-06T00:04:28.199Z,99.90
2017-08-06T00:06:55.654Z,99.90
2017-08-06T00:09:23.095Z,99.90
2017-08-06T00:11:50.543Z,99.90
2017-08-06T00:14:17.991Z,99.90
2017-08-06T00:16:46.199Z,99.90
2017-08-06T00:19:13.645Z,99.90
2017-08-06T00:21:41.087Z,99.90
2017-08-06T00:24:08.524Z,99.90
2017-08-06T00:26:35.982Z,99.90
2017-08-06T00:29:04.195Z,99.90
2017-08-06T00:31:31.652Z,99.90
2017-08-06T00:33:59.090Z,99.90
2017-08-06T00:36:26.564Z,99.90
2017-08-06T00:38:54.011Z,99.90
2017-08-06T00:41:21.451Z,99.90
2017-08-06T00:43:48.899Z,99.90
2017-08-06T00:46:16.343Z,99.90
2017-08-06T00:48:44.559Z,99.90
2017-08-06T00:51:11.995Z,99.90
2017-08-06T00:53:39.438Z,99.90
2017-08-06T00:56:07.648Z,99.90
2017-08-06T00:58:35.135Z,99.90
2017-08-06T01:01:02.599Z,99.90
2017-08-06T01:03:30.059Z,99.90
2017-08-06T01:05:57.511Z,99.90
2017-08-06T01:08:24.967Z,99.90
2017-08-06T01:10:52.406Z,99.90
2017-08-06T01:13:19.863Z,99.90
2017-08-06T01:15:47.307Z,99.90
2017-08-06T01:18:14.756Z,99.90
2017-08-06T01:20:42.206Z,99.90
2017-08-06T01:23:09.650Z,99.90
2017-08-06T01:25:37.100Z,99.90
2017-08-06T01:28:04.535Z,99.90
2017-08-06T01:30:32.751Z,99.90
2017-08-06T01:33:00.191Z,99.90
2017-08-06T01:35:27.638Z,99.90
2017-08-06T01:37:55.091Z,99.90
2017-08-06T01:40:23.299Z,99.90
2017-08-06T01:42:50.736Z,99.90
2017-08-06T01:45:18.204Z,99.90
2017-08-06T01:47:45.648Z,99.90
2017-08-06T01:50:13.086Z,99.90
2017-08-06T01:52:40.536Z,99.90
2017-08-06T01:55:07.987Z,99.90
2017-08-06T01:57:36.203Z,99.90
2017-08-06T02:00:03.660Z,99.90
2017-08-06T02:02:31.115Z,99.90
2017-08-06T02:04:58.554Z,99.90
2017-08-06T02:07:26.002Z,99.90
2017-08-06T02:09:53.447Z,99.90
2017-08-06T02:12:21.659Z,99.90
2017-08-06T02:14:49.095Z,99.90
2017-08-06T02:17:16.551Z,99.90
2017-08-06T02:19:43.987Z,99.90
2017-08-06T02:22:12.199Z,99.90
2017-08-06T02:24:39.662Z,99.90
2017-08-06T02:27:07.111Z,99.90
2017-08-06T02:29:34.562Z,99.90
2017-08-06T02:32:02.000Z,99.90
2017-08-06T02:34:29.463Z,99.90
2017-08-06T02:36:56.894Z,99.90
2017-08-06T02:39:24.342Z,99.90
2017-08-06T02:41:52.552Z,99.90
2017-08-06T02:44:19.999Z,99.90
2017-08-06T02:46:47.439Z,99.90
2017-08-06T02:49:15.651Z,99.90
2017-08-06T02:51:43.090Z,99.90
2017-08-06T02:54:10.555Z,99.90
2017-08-06T02:56:37.991Z,99.90
2017-08-06T02:59:05.435Z,99.90
2017-08-06T03:01:32.885Z,99.90
2017-08-06T03:04:01.087Z,99.90
2017-08-06T03:06:28.534Z,99.90
2017-08-06T03:08:57.559Z,99.90
2017-08-06T03:11:25.011Z,99.90
2017-08-06T03:13:52.456Z,99.90
2017-08-06T03:16:19.894Z,99.90
2017-08-06T03:18:47.342Z,99.90
2017-08-06T03:21:15.551Z,99.90
2017-08-06T03:23:42.991Z,99.90
2017-08-06T03:26:10.434Z,99.90
2017-08-06T03:28:37.873Z,99.90
2017-08-06T03:31:06.097Z,99.90
2017-08-06T03:33:33.535Z,99.90
2017-08-06T03:36:00.979Z,99.90
2017-08-06T03:38:28.427Z,99.90
2017-08-06T03:40:56.639Z,99.90
2017-08-06T03:43:24.093Z,99.90
2017-08-06T03:45:51.534Z,99.90
2017-08-06T03:48:18.980Z,99.90
2017-08-06T03:50:46.410Z,99.90
2017-08-06T03:53:14.626Z,99.90
2017-08-06T03:55:42.067Z,99.90
2017-08-06T03:58:10.286Z,99.90
2017-08-06T04:00:37.723Z,99.90
2017-08-06T04:03:05.178Z,99.90
2017-08-06T04:05:32.628Z,99.90
2017-08-06T04:08:00.057Z,99.90
2017-08-06T04:10:28.267Z,99.90
2017-08-06T04:12:55.718Z,99.90
2017-08-06T04:15:23.180Z,99.90
2017-08-06T04:17:50.614Z,99.90
2017-08-06T04:20:18.063Z,99.90
2017-08-06T04:22:45.519Z,99.90
2017-08-06T04:25:12.958Z,99.90
2017-08-06T04:27:41.176Z,99.90
2017-08-06T04:30:08.630Z,99.90
2017-08-06T04:32:36.074Z,99.90
2017-08-06T04:35:03.540Z,99.90
2017-08-06T04:37:30.970Z,99.90
2017-08-06T04:39:58.411Z,99.90
2017-08-06T04:42:26.631Z,99.90
2017-08-06T04:44:54.083Z,99.90
2017-08-06T04:47:21.547Z,99.90
2017-08-06T04:49:48.998Z,99.90
2017-08-06T04:52:16.460Z,99.90
2017-08-06T04:54:43.911Z,99.90
2017-08-06T04:57:11.367Z,99.90
2017-08-06T04:59:38.810Z,99.90
2017-08-06T05:02:06.247Z,99.90
2017-08-06T05:04:33.683Z,99.90
2017-08-06T05:07:01.912Z,99.90
2017-08-06T05:09:29.350Z,99.90
2017-08-06T05:11:56.786Z,99.90
2017-08-06T05:14:24.996Z,99.90
2017-08-06T05:16:52.449Z,99.90
2017-08-06T05:19:19.900Z,99.90
2017-08-06T05:21:47.335Z,99.90
2017-08-06T05:24:14.813Z,99.90
2017-08-06T05:26:42.246Z,99.90
2017-08-06T05:29:09.706Z,99.90
2017-08-06T05:31:37.142Z,99.90
2017-08-06T05:34:05.361Z,99.90
2017-08-06T05:36:32.818Z,99.90
2017-08-06T05:39:00.289Z,99.90
2017-08-06T05:41:27.732Z,99.90
2017-08-06T05:43:55.185Z,99.90
2017-08-06T05:46:22.642Z,99.90
2017-08-06T05:48:50.087Z,99.90
2017-08-06T05:51:17.526Z,99.90
2017-08-06T05:53:44.989Z,99.90
2017-08-06T05:56:12.435Z,99.90
2017-08-06T05:58:39.878Z,99.90
2017-08-06T06:01:08.134Z,99.90
2017-08-06T06:03:35.575Z,99.90
2017-08-06T06:06:03.055Z,99.90
2017-08-06T06:08:30.499Z,99.90
2017-08-06T06:10:58.074Z,99.90
2017-08-06T06:13:25.515Z,99.90
2017-08-06T06:15:52.960Z,99.90
2017-08-06T06:18:20.417Z,99.90
2017-08-06T06:20:47.918Z,99.90
2017-08-06T06:23:15.366Z,99.90
2017-08-06T06:25:43.571Z,99.80
2017-08-06T06:28:11.039Z,99.80
2017-08-06T06:30:38.482Z,97.90
2017-08-06T06:33:05.919Z,99.90
2017-08-06T06:35:34.162Z,99.90
2017-08-06T06:38:01.607Z,99.90
2017-08-06T06:40:29.052Z,99.90
2017-08-06T06:42:56.502Z,99.90
2017-08-06T06:45:23.955Z,99.90
2017-08-06T06:47:51.406Z,99.90
2017-08-06T06:50:18.864Z,99.90
2017-08-06T06:52:46.304Z,99.90
2017-08-06T06:55:13.754Z,99.90
2017-08-06T06:57:41.186Z,99.90
2017-08-06T07:00:08.656Z,99.90
2017-08-06T07:02:36.587Z,99.90
2017-08-06T07:05:04.023Z,99.90
2017-08-06T07:07:31.466Z,99.90
2017-08-06T07:09:59.041Z,99.90
2017-08-06T07:12:26.506Z,99.90
2017-08-06T07:14:53.946Z,99.90
2017-08-06T07:17:21.562Z,99.90
2017-08-06T07:19:49.773Z,99.90
2017-08-06T07:22:17.232Z,99.90
2017-08-06T07:24:44.683Z,99.90
2017-08-06T07:27:12.127Z,99.90
2017-08-06T07:29:39.574Z,99.90
2017-08-06T07:32:07.031Z,99.90
2017-08-06T07:34:34.470Z,99.50
2017-08-06T07:37:01.912Z,96.50
2017-08-06T07:39:29.363Z,97.60
2017-08-06T07:41:56.798Z,98.70
2017-08-06T07:44:24.242Z,96.70
2017-08-06T07:46:51.688Z,93.50
2017-08-06T07:49:19.143Z,91.60
2017-08-06T07:51:46.593Z,90.80
2017-08-06T07:54:14.043Z,91.90
2017-08-06T07:56:41.490Z,90.40
2017-08-06T07:59:08.935Z,90.70
2017-08-06T08:01:36.379Z,87.80
2017-08-06T08:04:04.627Z,88.20
2017-08-06T08:06:32.078Z,88.20
2017-08-06T08:08:59.522Z,85.00
2017-08-06T08:11:26.971Z,88.00
2017-08-06T08:13:54.491Z,86.70
2017-08-06T08:16:22.699Z,88.00
2017-08-06T08:18:50.158Z,87.90
2017-08-06T08:21:17.598Z,88.60
2017-08-06T08:23:45.039Z,90.80
2017-08-06T08:26:12.482Z,91.50
2017-08-06T08:28:40.699Z,93.50
2017-08-06T08:31:08.138Z,93.70
2017-08-06T08:33:35.578Z,91.90
2017-08-06T08:36:03.026Z,90.50
2017-08-06T08:38:31.243Z,92.10
2017-08-06T08:40:58.684Z,92.10
2017-08-06T08:43:26.192Z,90.10
2017-08-06T08:45:53.644Z,89.70
2017-08-06T08:48:21.079Z,84.70
2017-08-06T08:50:48.522Z,78.00
2017-08-06T08:53:15.958Z,75.30
2017-08-06T08:55:43.408Z,77.40
2017-08-06T08:58:10.853Z,77.40
2017-08-06T09:00:39.072Z,77.00
2017-08-06T09:03:06.514Z,76.60
2017-08-06T09:05:33.964Z,77.50
2017-08-06T09:08:01.424Z,71.60
2017-08-06T09:10:28.962Z,68.40
2017-08-06T09:12:57.193Z,69.30
2017-08-06T09:15:24.715Z,69.20
2017-08-06T09:17:52.159Z,70.90
2017-08-06T09:20:19.603Z,66.20
2017-08-06T09:22:47.824Z,71.30
2017-08-06T09:25:15.271Z,71.60
2017-08-06T09:27:42.727Z,70.80
2017-08-06T09:30:10.168Z,65.30
2017-08-06T09:32:37.620Z,63.30
2017-08-06T09:35:05.067Z,61.60
2017-08-06T09:37:32.518Z,58.40
2017-08-06T09:40:00.723Z,61.60
2017-08-06T09:42:28.166Z,61.70
2017-08-06T09:44:55.609Z,64.30
2017-08-06T09:47:23.042Z,65.00
2017-08-06T09:49:51.264Z,56.90
2017-08-06T09:52:18.724Z,56.90
2017-08-06T09:54:46.195Z,56.60
2017-08-06T09:57:13.636Z,55.40
2017-08-06T09:59:41.091Z,56.20
2017-08-06T10:02:08.537Z,58.50
2017-08-06T10:04:35.978Z,57.80
2017-08-06T10:07:03.414Z,55.90
2017-08-06T10:09:30.871Z,59.90
2017-08-06T10:11:59.087Z,58.60
2017-08-06T10:14:26.525Z,58.60
2017-08-06T10:16:53.969Z,58.10
2017-08-06T10:19:22.174Z,55.30
2017-08-06T10:21:49.636Z,55.20
2017-08-06T10:24:17.112Z,52.60
2017-08-06T10:26:44.554Z,54.70
2017-08-06T10:29:12.005Z,55.10
2017-08-06T10:31:39.456Z,54.30
2017-08-06T10:34:06.920Z,54.80
2017-08-06T10:36:34.371Z,56.20
2017-08-06T10:39:01.927Z,58.30
2017-08-06T10:41:29.361Z,60.70
2017-08-06T10:43:56.798Z,59.00
2017-08-06T10:46:25.017Z,55.30
2017-08-06T10:48:52.471Z,55.30
2017-08-06T10:51:19.932Z,52.60
2017-08-06T10:53:47.395Z,52.60
2017-08-06T10:56:14.843Z,51.20
2017-08-06T10:58:42.296Z,49.30
2017-08-06T11:01:09.726Z,50.30
2017-08-06T11:03:37.171Z,57.10
2017-08-06T11:06:05.383Z,55.10
2017-08-06T11:08:32.840Z,55.10
2017-08-06T11:11:00.297Z,55.30
2017-08-06T11:13:27.753Z,54.70
2017-08-06T11:15:55.219Z,55.40
2017-08-06T11:18:22.672Z,55.80
2017-08-06T11:20:50.120Z,56.20
2017-08-06T11:23:17.575Z,57.30
2017-08-06T11:25:45.032Z,56.30
2017-08-06T11:28:12.494Z,60.60
2017-08-06T11:30:39.944Z,58.60
2017-08-06T11:33:07.412Z,59.80
2017-08-06T11:35:34.859Z,64.10
2017-08-06T11:38:02.312Z,62.00
2017-08-06T11:40:29.767Z,61.50
2017-08-06T11:42:57.210Z,65.40
2017-08-06T11:45:25.022Z,66.30
2017-08-06T11:47:52.484Z,67.30
2017-08-06T11:50:19.946Z,66.80
2017-08-06T11:52:47.409Z,65.70
2017-08-06T11:55:14.852Z,63.90
2017-08-06T11:57:42.327Z,66.60
2017-08-06T12:00:10.538Z,62.00
2017-08-06T12:02:37.984Z,61.80
2017-08-06T12:05:05.895Z,65.40
2017-08-06T12:07:33.340Z,59.30
2017-08-06T12:10:00.779Z,61.40
2017-08-06T12:12:28.247Z,61.10
2017-08-06T12:14:55.694Z,60.60
2017-08-06T12:17:23.147Z,62.20
2017-08-06T12:19:50.592Z,63.60
2017-08-06T12:22:18.046Z,58.60
2017-08-06T12:24:45.496Z,56.80
2017-08-06T12:27:12.945Z,57.80
2017-08-06T12:29:41.185Z,53.50
2017-08-06T12:32:08.638Z,53.40
2017-08-06T12:34:36.643Z,53.30
2017-08-06T12:37:04.749Z,57.90
2017-08-06T12:39:32.204Z,56.80
2017-08-06T12:41:59.694Z,59.20
2017-08-06T12:44:27.139Z,59.70
2017-08-06T12:46:54.588Z,56.90
2017-08-06T12:49:22.046Z,56.70
2017-08-06T12:51:49.498Z,54.30
2017-08-06T12:54:16.957Z,61.20
2017-08-06T12:56:44.413Z,61.80
2017-08-06T12:59:11.854Z,59.90
2017-08-06T13:01:39.312Z,58.70
2017-08-06T13:04:06.839Z,57.90
2017-08-06T13:06:34.283Z,61.30
2017-08-06T13:09:02.500Z,58.40
2017-08-06T13:11:29.939Z,58.40
2017-08-06T13:13:57.374Z,59.50
2017-08-06T13:16:25.595Z,56.20
2017-08-06T13:18:53.039Z,56.20
2017-08-06T13:21:20.495Z,56.30
2017-08-06T13:23:47.952Z,58.60
2017-08-06T13:26:15.391Z,57.10
2017-08-06T13:28:42.831Z,58.70
2017-08-06T13:31:10.272Z,57.10
2017-08-06T13:33:38.495Z,56.40
2017-08-06T13:36:05.954Z,56.40
2017-08-06T13:38:33.412Z,57.50
2017-08-06T13:41:00.864Z,58.40
2017-08-06T13:43:28.316Z,58.20
2017-08-06T13:45:55.768Z,61.10
2017-08-06T13:48:23.241Z,58.80
2017-08-06T13:50:50.692Z,57.20
2017-08-06T13:53:18.144Z,60.30
2017-08-06T13:55:45.598Z,63.00
2017-08-06T13:58:13.055Z,61.60
2017-08-06T14:00:40.512Z,58.10
2017-08-06T14:03:07.967Z,59.60
2017-08-06T14:05:35.422Z,59.50
2017-08-06T14:08:02.883Z,58.20
2017-08-06T14:10:30.336Z,58.20
2017-08-06T14:12:57.795Z,56.10
2017-08-06T14:15:25.251Z,55.30
2017-08-06T14:17:52.691Z,55.90
2017-08-06T14:20:20.166Z,58.10
2017-08-06T14:22:47.612Z,59.00
2017-08-06T14:25:15.074Z,59.00
2017-08-06T14:27:42.525Z,58.50
2017-08-06T14:30:09.982Z,60.00
2017-08-06T14:32:37.431Z,57.00
2017-08-06T14:35:04.867Z,61.00
2017-08-06T14:37:32.321Z,60.00
2017-08-06T14:40:00.531Z,57.30
2017-08-06T14:42:27.987Z,57.30
2017-08-06T14:44:55.428Z,57.30
2017-08-06T14:47:22.874Z,56.70
2017-08-06T14:49:50.314Z,59.10
2017-08-06T14:52:18.532Z,59.00
2017-08-06T14:54:45.983Z,58.90
2017-08-06T14:57:13.440Z,58.90
2017-08-06T14:59:40.882Z,56.10
2017-08-06T15:02:08.327Z,60.20
2017-08-06T15:04:35.787Z,61.20
2017-08-06T15:07:03.227Z,59.60
2017-08-06T15:09:31.441Z,60.20
2017-08-06T15:11:58.895Z,60.10
2017-08-06T15:14:26.352Z,61.40
2017-08-06T15:16:53.799Z,60.50
2017-08-06T15:19:21.244Z,61.60
2017-08-06T15:21:48.679Z,62.40
2017-08-06T15:24:16.896Z,63.40
2017-08-06T15:26:44.347Z,63.50
2017-08-06T15:29:11.820Z,65.00
2017-08-06T15:31:39.258Z,65.10
2017-08-06T15:34:06.714Z,65.60
2017-08-06T15:36:34.170Z,65.20
2017-08-06T15:39:01.614Z,65.20
2017-08-06T15:41:29.071Z,62.50
2017-08-06T15:43:56.519Z,66.10
2017-08-06T15:46:23.978Z,63.30
2017-08-06T15:48:51.414Z,63.20
2017-08-06T15:51:19.644Z,60.60
2017-08-06T15:53:47.151Z,60.60
2017-08-06T15:56:15.364Z,62.50
2017-08-06T15:58:42.815Z,62.30
2017-08-06T16:01:10.271Z,61.40
2017-08-06T16:03:37.728Z,69.50
2017-08-06T16:06:05.186Z,62.10
2017-08-06T16:08:32.626Z,64.50
2017-08-06T16:11:00.076Z,64.70
2017-08-06T16:13:27.536Z,71.60
2017-08-06T16:15:54.973Z,67.10
2017-08-06T16:18:22.419Z,67.50
2017-08-06T16:20:49.854Z,66.80
2017-08-06T16:23:17.298Z,64.90
2017-08-06T16:25:44.734Z,65.40
2017-08-06T16:28:12.193Z,64.10
2017-08-06T16:30:39.664Z,69.20
2017-08-06T16:33:07.111Z,64.40
2017-08-06T16:35:34.562Z,64.40
2017-08-06T16:38:02.006Z,68.00
2017-08-06T16:40:29.459Z,69.30
2017-08-06T16:42:56.907Z,70.20
2017-08-06T16:45:24.362Z,67.20
2017-08-06T16:47:51.797Z,69.90
2017-08-06T16:50:19.239Z,67.60
2017-08-06T16:52:47.452Z,67.10
2017-08-06T16:55:14.907Z,67.00
2017-08-06T16:57:42.366Z,64.80
2017-08-06T17:00:09.836Z,66.60
2017-08-06T17:02:37.275Z,66.70
2017-08-06T17:05:04.714Z,68.00
2017-08-06T17:07:32.163Z,65.30
2017-08-06T17:09:59.609Z,70.00
2017-08-06T17:12:27.830Z,66.80
2017-08-06T17:14:55.274Z,66.90
2017-08-06T17:17:22.727Z,68.60
2017-08-06T17:19:50.166Z,67.40
2017-08-06T17:22:17.685Z,70.60
2017-08-06T17:24:45.136Z,67.80
2017-08-06T17:27:12.580Z,68.60
2017-08-06T17:29:40.042Z,67.70
2017-08-06T17:32:07.540Z,68.80
2017-08-06T17:34:34.995Z,67.10
2017-08-06T17:37:03.198Z,67.60
2017-08-06T17:39:30.670Z,67.60
2017-08-06T17:41:58.115Z,67.60
2017-08-06T17:44:25.566Z,68.30
2017-08-06T17:46:53.006Z,68.80
2017-08-06T17:49:20.461Z,70.80
2017-08-06T17:51:47.890Z,70.00
2017-08-06T17:54:16.111Z,76.30
2017-08-06T17:56:43.565Z,76.10
2017-08-06T17:59:11.008Z,76.70
2017-08-06T18:01:38.445Z,75.80
2017-08-06T18:04:05.902Z,79.80
2017-08-06T18:06:33.343Z,83.50
2017-08-06T18:09:01.586Z,88.50
2017-08-06T18:11:29.040Z,88.40
2017-08-06T18:13:56.492Z,90.00
2017-08-06T18:16:23.947Z,93.20
2017-08-06T18:18:51.392Z,95.30
2017-08-06T18:21:18.845Z,97.30
2017-08-06T18:23:46.274Z,97.90
2017-08-06T18:26:13.719Z,98.60
2017-08-06T18:28:41.933Z,99.90
2017-08-06T18:31:09.391Z,99.90
2017-08-06T18:33:36.866Z,99.90
2017-08-06T18:36:04.310Z,99.90
2017-08-06T18:38:31.758Z,99.90
2017-08-06T18:40:59.214Z,99.90
2017-08-06T18:43:26.660Z,99.90
2017-08-06T18:45:54.127Z,99.90
2017-08-06T18:48:21.577Z,99.90
2017-08-06T18:50:49.026Z,99.90
2017-08-06T18:53:16.470Z,99.90
2017-08-06T18:55:43.920Z,99.90
2017-08-06T18:58:11.380Z,99.90
2017-08-06T19:00:39.578Z,99.90
2017-08-06T19:03:07.040Z,99.90
2017-08-06T19:05:34.482Z,99.90
2017-08-06T19:08:01.922Z,99.90
2017-08-06T19:10:29.407Z,99.90
2017-08-06T19:12:56.863Z,99.90
2017-08-06T19:15:24.304Z,99.90
2017-08-06T19:17:51.752Z,99.90
2017-08-06T19:20:19.211Z,99.90
2017-08-06T19:22:46.687Z,99.90
2017-08-06T19:25:14.132Z,99.90
2017-08-06T19:27:41.571Z,99.90
2017-08-06T19:30:09.021Z,99.90
2017-08-06T19:32:37.230Z,99.90
2017-08-06T19:35:04.686Z,99.90
2017-08-06T19:37:32.128Z,99.90
2017-08-06T19:39:59.571Z,99.90
2017-08-06T19:42:27.008Z,99.90
2017-08-06T19:44:55.226Z,99.90
2017-08-06T19:47:22.655Z,99.90
2017-08-06T19:49:50.095Z,99.90
2017-08-06T19:52:18.311Z,99.90
2017-08-06T19:54:45.769Z,99.90
2017-08-06T19:57:13.220Z,99.90
2017-08-06T19:59:40.655Z,99.90
2017-08-06T20:02:08.098Z,99.90
2017-08-06T20:04:36.311Z,99.90
2017-08-06T20:07:03.751Z,99.90
2017-08-06T20:09:31.190Z,99.90
2017-08-06T20:11:59.399Z,99.90
2017-08-06T20:14:26.852Z,99.90
2017-08-06T20:16:54.310Z,99.90
2017-08-06T20:19:21.766Z,99.90
2017-08-06T20:21:49.223Z,99.90
2017-08-06T20:24:16.663Z,99.90
2017-08-06T20:26:44.115Z,99.90
2017-08-06T20:29:11.546Z,99.90
2017-08-06T20:31:39.766Z,99.90
2017-08-06T20:34:07.222Z,99.90
2017-08-06T20:36:34.663Z,99.90
2017-08-06T20:39:02.166Z,99.90
2017-08-06T20:41:29.603Z,99.90
2017-08-06T20:43:57.059Z,99.90
2017-08-06T20:46:24.506Z,99.90
2017-08-06T20:48:51.960Z,99.90
2017-08-06T20:51:19.408Z,99.90
2017-08-06T20:53:46.851Z,99.90
2017-08-06T20:56:14.290Z,99.90
2017-08-06T20:58:42.530Z,99.90
2017-08-06T21:01:09.978Z,99.90
2017-08-06T21:03:37.446Z,99.90
2017-08-06T21:06:04.891Z,99.90
2017-08-06T21:08:32.334Z,99.90
2017-08-06T21:10:59.795Z,99.90
2017-08-06T21:13:27.253Z,99.90
2017-08-06T21:15:54.706Z,99.90
2017-08-06T21:18:22.149Z,99.90
2017-08-06T21:20:49.606Z,99.90
2017-08-06T21:23:17.076Z,99.90
2017-08-06T21:25:44.533Z,99.90
2017-08-06T21:28:12.011Z,99.90
2017-08-06T21:30:39.467Z,99.90
2017-08-06T21:33:06.897Z,99.90
2017-08-06T21:35:34.342Z,99.90
2017-08-06T21:38:01.781Z,99.90
2017-08-06T21:40:29.243Z,99.90
2017-08-06T21:42:56.683Z,99.90
2017-08-06T21:45:24.128Z,99.90
2017-08-06T21:47:52.343Z,99.90
2017-08-06T21:50:19.783Z,99.90
2017-08-06T21:52:47.236Z,99.90
2017-08-06T21:55:14.675Z,99.90
2017-08-06T21:57:42.883Z,99.90
2017-08-06T22:00:10.333Z,99.90
2017-08-06T22:02:37.770Z,99.90
2017-08-06T22:05:05.212Z,99.90
2017-08-06T22:07:33.431Z,99.90
2017-08-06T22:10:00.877Z,99.90
2017-08-06T22:12:28.314Z,99.90
2017-08-06T22:14:55.747Z,99.90
2017-08-06T22:17:23.972Z,99.90
2017-08-06T22:19:51.406Z,99.90
2017-08-06T22:22:18.848Z,99.90
2017-08-06T22:24:46.307Z,99.90
2017-08-06T22:27:13.748Z,99.90
2017-08-06T22:29:41.971Z,99.90
2017-08-06T22:32:09.406Z,99.90
2017-08-06T22:34:36.970Z,99.90
2017-08-06T22:37:04.403Z,99.90
2017-08-06T22:39:32.611Z,99.90
2017-08-06T22:42:00.055Z,99.90
2017-08-06T22:44:27.502Z,99.90
2017-08-06T22:46:54.955Z,99.90
2017-08-06T22:49:22.386Z,99.90
2017-08-06T22:51:50.604Z,99.90
2017-08-06T22:54:18.064Z,99.90
2017-08-06T22:56:45.498Z,99.90
2017-08-06T22:59:12.939Z,99.90
2017-08-06T23:01:41.155Z,99.90
2017-08-06T23:04:08.610Z,99.90
2017-08-06T23:06:36.051Z,99.90
2017-08-06T23:09:03.508Z,99.90
2017-08-06T23:11:30.947Z,99.90
2017-08-06T23:13:58.399Z,99.90
2017-08-06T23:16:26.608Z,99.90
2017-08-06T23:18:54.060Z,99.90
2017-08-06T23:21:21.495Z,99.90
2017-08-06T23:23:48.939Z,99.90
2017-08-06T23:26:16.390Z,99.90
2017-08-06T23:28:44.603Z,99.90
2017-08-06T23:31:12.043Z,99.90
2017-08-06T23:33:39.518Z,99.90
2017-08-06T23:36:06.955Z,99.90
2017-08-06T23:38:34.395Z,99.90
2017-08-06T23:41:01.844Z,99.90
2017-08-06T23:43:30.053Z,99.90
2017-08-06T23:45:57.518Z,99.90
2017-08-06T23:48:24.965Z,99.90
2017-08-06T23:50:52.408Z,99.90
2017-08-06T23:53:19.838Z,99.90
2017-08-06T23:55:48.061Z,99.90
2017-08-06T23:58:15.512Z,99.90
